Terminal Aerodrome Forecast
Issued by NWS

Home | Current Version | Previous Version | Text Only | Print | Product List | Glossary On
Versions: 1 2 3 4 5 6 7 8 9 10 11 12 13 14 15 16 17 18 19
772
FTUS44 KBMX 270711 AAA
TAFTOI
TAF AMD
KTOI 270711Z 2707/2806 00000KT P6SM SKC
      TEMPO 2709/2712 3SM BR
     FM271500 24006KT P6SM SCT050 PROB30 2718/2724 4SM -TSRA
      BKN040CB=

USA.gov is the U.S. government's official web portal to all federal, state and local government web resources and services.